createdAt,value
2018-09-05T00:01:59.446Z,19.17
2018-09-05T00:04:29.526Z,21.80
2018-09-05T00:06:59.636Z,19.27
2018-09-05T00:09:29.925Z,19.90
2018-09-05T00:12:00.020Z,18.10
2018-09-05T00:14:30.133Z,18.70
2018-09-05T00:17:00.256Z,18.70
2018-09-05T00:19:30.437Z,18.70
2018-09-05T00:22:00.495Z,23.70
2018-09-05T00:24:30.646Z,23.00
2018-09-05T00:27:00.796Z,26.40
2018-09-05T00:29:30.983Z,20.90
2018-09-05T00:32:01.139Z,22.87
2018-09-05T00:34:31.299Z,19.30
2018-09-05T00:37:01.458Z,21.80
2018-09-05T00:39:31.619Z,20.63
2018-09-05T00:42:01.810Z,23.20
2018-09-05T00:44:31.935Z,23.30
2018-09-05T00:47:02.035Z,21.80
2018-09-05T00:49:32.330Z,24.70
2018-09-05T00:52:02.472Z,25.90
2018-09-05T00:54:32.640Z,22.00
2018-09-05T00:57:02.745Z,23.10
2018-09-05T00:59:32.949Z,21.10
2018-09-05T01:02:03.098Z,26.30
2018-09-05T01:04:33.229Z,21.17
2018-09-05T01:07:18.739Z,32.10
2018-09-05T01:09:48.917Z,24.17
2018-09-05T01:12:20.204Z,23.77
2018-09-05T01:14:51.483Z,22.87
2018-09-05T01:17:21.891Z,28.27
2018-09-05T01:19:52.077Z,25.70
2018-09-05T01:22:22.163Z,27.57
2018-09-05T01:24:52.311Z,25.80
2018-09-05T01:27:22.438Z,25.00
2018-09-05T01:29:52.542Z,26.23
2018-09-05T01:32:22.623Z,28.60
2018-09-05T01:34:52.812Z,23.47
2018-09-05T01:37:22.904Z,27.33
2018-09-05T01:39:53.818Z,27.43
2018-09-05T01:42:23.921Z,23.77
2018-09-05T01:44:54.011Z,24.17
2018-09-05T01:47:24.144Z,28.70
2018-09-05T01:49:54.304Z,32.20
2018-09-05T01:52:24.390Z,28.30
2018-09-05T01:54:54.518Z,29.30
2018-09-05T01:57:24.616Z,31.10
2018-09-05T01:59:54.788Z,27.57
2018-09-05T02:02:25.995Z,28.30
2018-09-05T02:04:56.664Z,32.90
2018-09-05T02:07:26.906Z,33.77
2018-09-05T02:09:57.080Z,30.27
2018-09-05T02:12:27.200Z,39.27
2018-09-05T02:14:57.407Z,31.87
2018-09-05T02:17:27.538Z,34.67
2018-09-05T02:19:58.018Z,39.73
2018-09-05T02:22:28.196Z,40.30
2018-09-05T02:24:58.330Z,39.57
2018-09-05T02:27:28.470Z,38.47
2018-09-05T02:29:58.755Z,38.73
2018-09-05T02:32:28.867Z,42.57
2018-09-05T02:34:59.037Z,39.00
2018-09-05T02:37:29.146Z,43.47
2018-09-05T02:39:59.277Z,46.20
2018-09-05T02:42:29.393Z,41.40
2018-09-05T02:44:59.550Z,50.13
2018-09-05T02:47:29.678Z,44.80
2018-09-05T02:49:59.828Z,43.63
2018-09-05T02:52:30.079Z,43.03
2018-09-05T02:55:00.214Z,44.70
2018-09-05T02:57:30.351Z,48.63
2018-09-05T03:00:00.601Z,49.00
2018-09-05T03:02:30.741Z,43.37
2018-09-05T03:05:00.888Z,44.93
2018-09-05T03:07:31.005Z,45.90
2018-09-05T03:10:01.173Z,57.00
2018-09-05T03:12:31.260Z,56.90
2018-09-05T03:15:01.370Z,56.37
2018-09-05T03:17:31.569Z,51.07
2018-09-05T03:20:01.741Z,62.13
2018-09-05T03:22:31.809Z,53.00
2018-09-05T03:25:01.892Z,60.47
2018-09-05T03:27:32.012Z,54.77
2018-09-05T03:30:02.115Z,60.87
2018-09-05T03:32:32.281Z,54.83
2018-09-05T03:35:02.410Z,57.03
2018-09-05T03:37:32.474Z,65.73
2018-09-05T03:40:02.598Z,57.93
2018-09-05T03:42:32.717Z,63.13
2018-09-05T03:45:02.884Z,61.87
2018-09-05T03:47:33.020Z,55.90
2018-09-05T03:50:03.191Z,61.97
2018-09-05T03:52:33.257Z,65.93
2018-09-05T03:55:03.384Z,53.47
2018-09-05T03:57:33.497Z,70.40
2018-09-05T04:00:03.800Z,58.43
2018-09-05T04:02:33.926Z,62.40
2018-09-05T04:05:04.191Z,58.10
2018-09-05T04:07:34.388Z,64.13
2018-09-05T04:10:04.692Z,57.80
2018-09-05T04:12:38.762Z,71.20
2018-09-05T04:15:09.483Z,65.20
2018-09-05T04:17:39.835Z,68.57
2018-09-05T04:20:10.567Z,64.20
2018-09-05T04:22:40.637Z,63.17
2018-09-05T04:25:10.758Z,63.93
2018-09-05T04:27:40.926Z,72.47
2018-09-05T04:30:11.105Z,74.77
2018-09-05T04:32:41.204Z,67.53
2018-09-05T04:35:11.377Z,63.10
2018-09-05T04:37:41.423Z,67.40
2018-09-05T04:40:11.576Z,65.63
2018-09-05T04:42:41.774Z,67.00
2018-09-05T04:45:11.923Z,66.93
2018-09-05T04:47:41.997Z,58.80
2018-09-05T04:50:12.320Z,64.07
2018-09-05T04:52:42.563Z,66.90
2018-09-05T04:55:12.686Z,65.10
2018-09-05T04:57:42.872Z,68.17
2018-09-05T05:00:13.048Z,71.60
2018-09-05T05:02:43.176Z,76.93
2018-09-05T05:05:13.332Z,83.30
2018-09-05T05:07:43.410Z,69.70
2018-09-05T05:10:13.516Z,81.50
2018-09-05T05:12:43.618Z,76.20
2018-09-05T05:15:13.751Z,73.90
2018-09-05T05:17:43.854Z,83.23
2018-09-05T05:20:13.984Z,71.87
2018-09-05T05:22:44.049Z,76.97
2018-09-05T05:25:14.169Z,74.30
2018-09-05T05:27:44.286Z,66.50
2018-09-05T05:30:14.446Z,66.63
2018-09-05T05:32:44.652Z,65.50
2018-09-05T05:35:14.746Z,71.30
2018-09-05T05:37:44.845Z,58.33
2018-09-05T05:40:14.968Z,71.17
2018-09-05T05:42:45.081Z,59.87
2018-09-05T05:45:15.235Z,55.53
2018-09-05T05:47:45.331Z,54.63
2018-09-05T05:50:15.508Z,56.63
2018-09-05T05:52:45.586Z,49.23
2018-09-05T05:55:15.730Z,48.53
2018-09-05T05:57:45.815Z,47.73
2018-09-05T06:00:16.029Z,47.67
2018-09-05T06:02:46.186Z,45.10
2018-09-05T06:05:16.375Z,49.20
2018-09-05T06:07:46.518Z,41.13
2018-09-05T06:10:16.699Z,46.33
2018-09-05T06:12:49.939Z,42.80
2018-09-05T06:15:20.127Z,44.10
2018-09-05T06:17:50.224Z,47.53
2018-09-05T06:20:20.392Z,41.00
2018-09-05T06:22:50.525Z,46.40
2018-09-05T06:25:20.634Z,44.40
2018-09-05T06:27:50.751Z,39.77
2018-09-05T06:30:20.941Z,40.57
2018-09-05T06:32:51.100Z,36.60
2018-09-05T06:35:21.235Z,36.17
2018-09-05T06:37:51.304Z,39.70
2018-09-05T06:40:21.433Z,37.20
2018-09-05T06:42:51.570Z,40.70
2018-09-05T06:45:21.848Z,37.10
2018-09-05T06:47:51.939Z,38.50
2018-09-05T06:50:22.118Z,41.07
2018-09-05T06:52:52.186Z,34.80
2018-09-05T06:55:22.361Z,39.80
2018-09-05T06:57:52.527Z,34.20
2018-09-05T07:00:22.738Z,34.70
2018-09-05T07:02:52.939Z,31.17
2018-09-05T07:05:23.178Z,38.20
2018-09-05T07:07:53.353Z,33.00
2018-09-05T07:10:23.486Z,30.67
2018-09-05T07:12:53.543Z,31.33
2018-09-05T07:15:23.676Z,31.27
2018-09-05T07:17:54.543Z,32.57
2018-09-05T07:20:24.715Z,32.57
2018-09-05T07:22:54.840Z,30.40
2018-09-05T07:25:24.970Z,30.53
2018-09-05T07:27:55.018Z,37.80
2018-09-05T07:30:25.260Z,30.20
2018-09-05T07:32:55.390Z,31.33
2018-09-05T07:35:25.668Z,33.13
2018-09-05T07:37:55.786Z,31.40
2018-09-05T07:40:25.933Z,31.57
2018-09-05T07:42:56.069Z,34.03
2018-09-05T07:45:26.300Z,31.77
2018-09-05T07:47:58.164Z,33.50
2018-09-05T07:50:28.360Z,32.00
2018-09-05T07:52:58.520Z,32.37
2018-09-05T07:55:31.816Z,31.00
2018-09-05T07:58:02.019Z,33.07
2018-09-05T08:00:32.145Z,37.03
2018-09-05T08:03:02.417Z,36.50
2018-09-05T08:05:32.616Z,34.97
2018-09-05T08:08:02.860Z,35.73
2018-09-05T08:10:32.945Z,33.67
2018-09-05T08:13:03.285Z,32.67
2018-09-05T08:15:33.479Z,29.23
2018-09-05T08:18:03.715Z,41.03
2018-09-05T08:20:33.907Z,29.60
2018-09-05T08:23:04.023Z,32.23
2018-09-05T08:25:34.164Z,29.03
2018-09-05T08:28:04.408Z,24.60
2018-09-05T08:30:34.561Z,29.07
2018-09-05T08:33:04.686Z,29.87
2018-09-05T08:35:34.986Z,29.33
2018-09-05T08:38:05.426Z,26.37
2018-09-05T08:40:35.617Z,24.17
2018-09-05T08:43:05.758Z,26.53
2018-09-05T08:45:36.129Z,24.20
2018-09-05T08:48:06.209Z,26.83
2018-09-05T08:50:36.381Z,22.60
2018-09-05T08:53:06.519Z,30.00
2018-09-05T08:55:36.736Z,20.53
2018-09-05T08:58:06.943Z,25.73
2018-09-05T09:00:37.172Z,28.80
2018-09-05T09:03:07.463Z,27.03
2018-09-05T09:05:37.647Z,21.60
2018-09-05T09:08:07.822Z,21.40
2018-09-05T09:10:38.009Z,20.80
2018-09-05T09:13:08.170Z,25.23
2018-09-05T09:15:38.314Z,25.17
2018-09-05T09:18:08.491Z,22.87
2018-09-05T09:20:38.633Z,22.10
2018-09-05T09:23:08.745Z,22.70
2018-09-05T09:25:38.900Z,25.23
2018-09-05T09:28:09.061Z,21.53
2018-09-05T09:30:39.253Z,21.00
2018-09-05T09:33:10.050Z,22.67
2018-09-05T09:35:40.350Z,25.23
2018-09-05T09:38:10.443Z,22.60
2018-09-05T09:40:40.576Z,19.77
2018-09-05T09:43:10.676Z,17.83
2018-09-05T09:45:40.889Z,21.37
2018-09-05T09:48:11.057Z,21.30
2018-09-05T09:50:41.240Z,21.40
2018-09-05T09:53:11.416Z,18.17
2018-09-05T09:55:41.557Z,16.07
2018-09-05T09:58:11.729Z,14.03
2018-09-05T10:00:46.854Z,15.87
2018-09-05T10:03:22.091Z,16.73
2018-09-05T10:05:57.173Z,14.17
2018-09-05T10:08:33.847Z,14.23
2018-09-05T10:11:09.149Z,16.20
2018-09-05T10:13:44.417Z,15.53
2018-09-05T10:16:19.545Z,18.07
2018-09-05T10:18:51.822Z,16.67
2018-09-05T10:21:22.194Z,14.70
2018-09-05T10:23:52.398Z,16.70
2018-09-05T10:26:22.592Z,16.63
2018-09-05T10:28:52.666Z,14.50
2018-09-05T10:31:22.853Z,13.87
2018-09-05T10:33:52.951Z,12.40
2018-09-05T10:36:23.107Z,13.70
2018-09-05T10:38:53.185Z,12.87
2018-09-05T10:41:23.317Z,12.50
2018-09-05T10:43:53.473Z,12.87
2018-09-05T10:46:23.579Z,14.17
2018-09-05T10:48:53.665Z,15.10
2018-09-05T10:51:27.799Z,14.20
2018-09-05T10:53:57.896Z,15.60
2018-09-05T10:56:28.019Z,15.53
2018-09-05T10:58:58.163Z,14.80
2018-09-05T11:01:28.431Z,15.67
2018-09-05T11:03:58.727Z,15.70
2018-09-05T11:06:28.839Z,12.30
2018-09-05T11:08:58.929Z,15.50
2018-09-05T11:11:29.150Z,17.57
2018-09-05T11:13:59.388Z,14.87
2018-09-05T11:16:29.617Z,15.33
2018-09-05T11:18:59.704Z,19.20
2018-09-05T11:21:29.908Z,20.70
2018-09-05T11:24:00.004Z,23.23
2018-09-05T11:26:30.192Z,21.13
2018-09-05T11:29:00.736Z,22.03
2018-09-05T11:31:30.879Z,23.10
2018-09-05T11:34:01.011Z,18.77
2018-09-05T11:36:31.137Z,19.27
2018-09-05T11:39:01.314Z,22.00
2018-09-05T11:41:31.445Z,17.07
2018-09-05T11:44:01.582Z,17.70
2018-09-05T11:46:31.740Z,21.80
2018-09-05T11:49:01.828Z,15.93
2018-09-05T11:51:32.040Z,17.90
2018-09-05T11:54:02.156Z,21.30
2018-09-05T11:56:32.276Z,21.40
2018-09-05T11:59:02.418Z,19.40
2018-09-05T12:01:32.564Z,17.80
2018-09-05T12:04:02.682Z,23.70
2018-09-05T12:06:32.822Z,21.50
2018-09-05T12:09:03.123Z,24.20
2018-09-05T12:11:33.303Z,21.77
2018-09-05T12:14:03.343Z,25.17
2018-09-05T12:16:35.334Z,24.90
2018-09-05T12:19:06.287Z,23.33
2018-09-05T12:21:36.656Z,21.50
2018-09-05T12:24:07.002Z,27.40
2018-09-05T12:26:39.659Z,21.80
2018-09-05T12:29:11.865Z,17.77
2018-09-05T12:31:42.726Z,20.70
2018-09-05T12:34:13.832Z,17.13
2018-09-05T12:36:43.956Z,16.77
2018-09-05T12:39:15.096Z,22.00
2018-09-05T12:41:45.253Z,14.67
2018-09-05T12:44:15.355Z,17.03
2018-09-05T12:46:45.645Z,17.30
2018-09-05T12:49:15.738Z,17.00
2018-09-05T12:51:45.978Z,25.03
2018-09-05T12:54:16.123Z,18.40
2018-09-05T12:56:46.283Z,18.77
2018-09-05T12:59:16.464Z,16.03
2018-09-05T13:01:46.555Z,17.83
2018-09-05T13:04:16.656Z,16.90
2018-09-05T13:06:46.815Z,20.80
2018-09-05T13:09:17.012Z,16.53
2018-09-05T13:11:47.283Z,16.10
2018-09-05T13:14:17.403Z,20.53
2018-09-05T13:16:47.650Z,15.70
2018-09-05T13:19:17.724Z,17.33
2018-09-05T13:21:47.841Z,14.83
2018-09-05T13:24:18.101Z,16.80
2018-09-05T13:26:48.303Z,15.20
2018-09-05T13:29:18.371Z,13.87
2018-09-05T13:31:48.596Z,15.70
2018-09-05T13:34:25.654Z,15.60
2018-09-05T13:36:55.936Z,15.00
2018-09-05T13:39:26.366Z,14.47
2018-09-05T13:41:56.536Z,19.77
2018-09-05T13:44:26.609Z,19.77
2018-09-05T13:46:56.763Z,15.97
2018-09-05T13:49:26.902Z,17.20
2018-09-05T13:52:02.064Z,16.83
2018-09-05T13:54:32.853Z,24.77
2018-09-05T13:57:03.079Z,18.43
2018-09-05T13:59:33.601Z,15.63
2018-09-05T14:02:03.753Z,15.00
2018-09-05T14:04:33.901Z,18.80
2018-09-05T14:07:03.997Z,15.93
2018-09-05T14:09:34.116Z,13.50
2018-09-05T14:12:04.317Z,15.40
2018-09-05T14:14:34.352Z,12.60
2018-09-05T14:17:04.632Z,11.10
2018-09-05T14:19:34.680Z,10.70
2018-09-05T14:22:04.957Z,11.27
2018-09-05T14:24:35.114Z,11.30
2018-09-05T14:27:05.413Z,12.20
2018-09-05T14:29:35.526Z,10.30
2018-09-05T14:32:05.673Z,10.97
2018-09-05T14:34:35.800Z,9.37
2018-09-05T14:37:05.955Z,14.13
2018-09-05T14:39:36.063Z,11.97
2018-09-05T14:42:06.200Z,12.23
2018-09-05T14:44:36.352Z,11.90
2018-09-05T14:47:06.482Z,10.87
2018-09-05T14:49:36.589Z,9.40
2018-09-05T14:52:06.721Z,10.83
2018-09-05T14:54:36.825Z,11.63
2018-09-05T14:57:06.977Z,9.53
2018-09-05T14:59:37.103Z,10.57
2018-09-05T15:02:07.287Z,11.80
2018-09-05T15:04:37.566Z,12.53
2018-09-05T15:07:08.351Z,12.17
2018-09-05T15:09:41.536Z,13.10
2018-09-05T15:12:11.697Z,10.93
2018-09-05T15:14:41.796Z,12.20
2018-09-05T15:17:11.971Z,10.93
2018-09-05T15:19:42.137Z,11.17
2018-09-05T15:22:12.304Z,12.53
2018-09-05T15:24:42.463Z,13.23
2018-09-05T15:27:12.781Z,11.03
2018-09-05T15:29:42.898Z,14.50
2018-09-05T15:32:13.102Z,10.27
2018-09-05T15:34:43.225Z,14.07
2018-09-05T15:37:13.430Z,11.83
2018-09-05T15:39:43.520Z,9.30
2018-09-05T15:42:13.650Z,10.93
2018-09-05T15:44:43.722Z,11.13
2018-09-05T15:47:13.878Z,10.87
2018-09-05T15:49:44.266Z,11.27
2018-09-05T15:52:14.509Z,10.80
2018-09-05T15:54:44.620Z,11.93
2018-09-05T15:57:14.773Z,10.70
2018-09-05T15:59:44.870Z,8.63
2018-09-05T16:02:14.984Z,9.90
2018-09-05T16:04:45.135Z,8.30
2018-09-05T16:07:15.491Z,8.50
2018-09-05T16:09:45.533Z,10.33
2018-09-05T16:12:16.046Z,10.63
2018-09-05T16:14:46.133Z,9.00
2018-09-05T16:17:16.209Z,11.97
2018-09-05T16:19:46.253Z,9.03
2018-09-05T16:22:16.425Z,10.07
2018-09-05T16:24:46.534Z,15.03
2018-09-05T16:27:16.639Z,10.50
2018-09-05T16:29:46.735Z,9.57
2018-09-05T16:32:16.882Z,10.23
2018-09-05T16:34:46.992Z,11.37
2018-09-05T16:37:17.300Z,8.47
2018-09-05T16:39:47.537Z,9.30
2018-09-05T16:42:17.563Z,9.20
2018-09-05T16:44:47.693Z,8.63
2018-09-05T16:47:18.096Z,12.23
2018-09-05T16:49:48.175Z,7.77
2018-09-05T16:52:18.319Z,8.73
2018-09-05T16:54:48.512Z,13.37
2018-09-05T16:57:18.767Z,7.30
2018-09-05T16:59:48.852Z,9.43
2018-09-05T17:02:18.933Z,9.43
2018-09-05T17:04:49.012Z,10.93
2018-09-05T17:07:19.138Z,7.50
2018-09-05T17:09:49.247Z,8.97
2018-09-05T17:12:19.407Z,7.90
2018-09-05T17:14:49.501Z,8.10
2018-09-05T17:17:19.637Z,7.00
2018-09-05T17:19:49.773Z,8.87
2018-09-05T17:22:19.862Z,10.37
2018-09-05T17:24:50.013Z,8.17
2018-09-05T17:27:20.203Z,8.03
2018-09-05T17:29:50.328Z,6.93
2018-09-05T17:32:20.428Z,9.23
2018-09-05T17:34:50.569Z,7.90
2018-09-05T17:37:20.700Z,8.13
2018-09-05T17:39:50.781Z,7.23
2018-09-05T17:42:20.872Z,6.83
2018-09-05T17:44:50.965Z,13.73
2018-09-05T17:47:21.117Z,9.30
2018-09-05T17:49:51.245Z,8.73
2018-09-05T17:52:21.423Z,10.50
2018-09-05T17:54:51.485Z,8.87
2018-09-05T17:57:21.671Z,8.90
2018-09-05T17:59:51.770Z,8.50
2018-09-05T18:02:21.945Z,8.70
2018-09-05T18:04:52.249Z,8.63
2018-09-05T18:07:22.483Z,7.70
2018-09-05T18:09:52.566Z,6.20
2018-09-05T18:12:22.731Z,6.87
2018-09-05T18:14:52.903Z,7.40
2018-09-05T18:17:23.094Z,5.83
2018-09-05T18:19:53.358Z,6.13
2018-09-05T18:22:23.454Z,7.37
2018-09-05T18:24:54.060Z,9.10
2018-09-05T18:27:24.535Z,7.37
2018-09-05T18:29:54.679Z,9.10
2018-09-05T18:32:24.752Z,6.57
2018-09-05T18:34:55.105Z,8.10
2018-09-05T18:37:25.257Z,4.83
2018-09-05T18:39:55.335Z,7.20
2018-09-05T18:42:25.436Z,7.03
2018-09-05T18:44:55.548Z,7.33
2018-09-05T18:47:25.770Z,7.10
2018-09-05T18:49:55.834Z,5.80
2018-09-05T18:52:25.943Z,8.30
2018-09-05T18:54:56.134Z,9.33
2018-09-05T18:57:26.281Z,7.03
2018-09-05T18:59:56.334Z,8.47
2018-09-05T19:02:29.508Z,9.00
2018-09-05T19:04:59.643Z,7.60
2018-09-05T19:07:29.801Z,7.27
2018-09-05T19:09:59.958Z,8.70
2018-09-05T19:12:30.190Z,9.37
2018-09-05T19:15:00.398Z,5.80
2018-09-05T19:17:30.599Z,6.13
2018-09-05T19:20:00.811Z,5.77
2018-09-05T19:22:31.057Z,6.00
2018-09-05T19:25:01.237Z,5.00
2018-09-05T19:27:32.030Z,7.27
2018-09-05T19:30:02.224Z,6.67
2018-09-05T19:32:32.387Z,6.13
2018-09-05T19:35:02.596Z,6.50
2018-09-05T19:37:32.885Z,6.47
2018-09-05T19:40:03.023Z,6.63
2018-09-05T19:42:33.305Z,6.37
2018-09-05T19:45:03.444Z,9.80
2018-09-05T19:47:33.637Z,5.90
2018-09-05T19:50:03.909Z,6.60
2018-09-05T19:52:34.221Z,6.73
2018-09-05T19:55:04.418Z,7.20
2018-09-05T19:57:34.656Z,5.80
2018-09-05T20:00:04.964Z,7.77
2018-09-05T20:02:35.239Z,6.33
2018-09-05T20:05:05.520Z,6.83
2018-09-05T20:07:35.780Z,11.33
2018-09-05T20:10:06.038Z,5.10
2018-09-05T20:12:36.277Z,6.40
2018-09-05T20:15:06.492Z,7.77
2018-09-05T20:17:36.677Z,6.77
2018-09-05T20:20:07.238Z,6.37
2018-09-05T20:22:37.406Z,6.60
2018-09-05T20:25:07.708Z,6.90
2018-09-05T20:27:37.982Z,8.93
2018-09-05T20:30:08.328Z,9.33
2018-09-05T20:32:38.546Z,6.00
2018-09-05T20:35:08.819Z,8.57
2018-09-05T20:37:38.984Z,7.17
2018-09-05T20:40:09.248Z,6.80
2018-09-05T20:42:39.373Z,6.50
2018-09-05T20:45:09.531Z,5.10
2018-09-05T20:47:39.592Z,7.63
2018-09-05T20:50:09.740Z,7.73
2018-09-05T20:52:39.968Z,6.17
2018-09-05T20:55:09.603Z,7.70
2018-09-05T20:57:39.783Z,6.33
2018-09-05T21:00:09.898Z,10.23
2018-09-05T21:02:40.216Z,8.93
2018-09-05T21:05:10.448Z,6.60
2018-09-05T21:07:40.484Z,7.30
2018-09-05T21:10:11.496Z,5.80
2018-09-05T21:12:41.708Z,7.30
2018-09-05T21:15:11.840Z,8.67
2018-09-05T21:17:41.973Z,9.00
2018-09-05T21:20:12.087Z,6.20
2018-09-05T21:22:42.241Z,7.70
2018-09-05T21:25:12.361Z,8.07
2018-09-05T21:27:42.458Z,8.60
2018-09-05T21:30:12.659Z,6.87
2018-09-05T21:32:42.747Z,6.27
2018-09-05T21:35:12.830Z,8.03
2018-09-05T21:37:42.975Z,9.73
2018-09-05T21:40:13.074Z,6.37
2018-09-05T21:42:43.193Z,9.20
2018-09-05T21:45:13.333Z,7.37
2018-09-05T21:47:43.441Z,6.33
2018-09-05T21:50:13.521Z,8.93
2018-09-05T21:52:43.632Z,4.97
2018-09-05T21:55:13.753Z,8.80
2018-09-05T21:57:43.982Z,9.57
2018-09-05T22:00:14.743Z,9.27
2018-09-05T22:02:44.969Z,10.33
2018-09-05T22:05:15.264Z,7.17
2018-09-05T22:07:45.358Z,5.27
2018-09-05T22:10:15.440Z,7.00
2018-09-05T22:12:45.631Z,6.70
2018-09-05T22:15:15.793Z,6.80
2018-09-05T22:17:45.846Z,6.27
2018-09-05T22:20:15.962Z,7.40
2018-09-05T22:22:46.094Z,11.90
2018-09-05T22:25:16.981Z,5.43
2018-09-05T22:27:47.101Z,6.73
2018-09-05T22:30:17.249Z,8.53
2018-09-05T22:32:47.383Z,7.50
2018-09-05T22:35:17.523Z,8.03
2018-09-05T22:37:47.602Z,11.63
2018-09-05T22:40:17.640Z,6.10
2018-09-05T22:43:04.268Z,7.33
2018-09-05T22:45:51.148Z,8.00
2018-09-05T22:48:43.069Z,7.60
2018-09-05T22:54:08.568Z,5.63
2018-09-05T22:57:01.768Z,6.73
2018-09-05T23:00:45.556Z,6.70
2018-09-05T23:04:06.785Z,6.90
2018-09-05T23:08:54.951Z,4.90
2018-09-05T23:12:08.817Z,6.63
2018-09-05T23:15:01.324Z,8.07
2018-09-05T23:18:19.738Z,6.03
2018-09-05T23:21:27.266Z,5.97
2018-09-05T23:24:03.579Z,6.17
2018-09-05T23:26:33.745Z,7.03
2018-09-05T23:29:03.892Z,10.50
2018-09-05T23:31:34.005Z,6.77
2018-09-05T23:34:04.081Z,6.93
2018-09-05T23:36:34.208Z,6.40
2018-09-05T23:39:05.037Z,7.60
2018-09-05T23:41:35.179Z,7.00
2018-09-05T23:44:05.339Z,6.03
2018-09-05T23:46:35.435Z,6.00
2018-09-05T23:49:05.542Z,5.20
2018-09-05T23:51:35.631Z,7.30
2018-09-05T23:54:05.662Z,5.60
2018-09-05T23:56:35.864Z,7.40
2018-09-05T23:59:06.573Z,6.97
